• Join FlightAware (Why Join?)
  • Login
  • US Flag 
03:53AM EST


 

Airport Tracker/Info


-or-


 

Live Flight TrackerFlight Track Log ✈ UPS238 ✈ 11-Jul-2013 ✈ EGSS / STN - KSDF

Flight Track Log - Related Links

Times and Time Zones

All times are in EDT time to prevent confusion due to time zone crossing. See the UPS238 flight status page for this flight to view local times or setup timezone preferences in your user account.

Time Position Orientation Groundspeed Altitude Reporting Facility
EDT Latitude Longitude Course Direction KTS MPH feet Rate Location/Type
03:52PM 51.8900 0.2470 North 13 15  Level FlightAware
03:53PM 51.8850 0.2400 221° Southwest 23 26 120 Level FlightAware
03:53PM 51.8830 0.2370 223° Southwest 21 24 180 Level FlightAware
03:54PM 51.8810 0.2330 231° Southwest 19 22 180 Level FlightAware
03:54PM 51.8780 0.2290 219° Southwest 19 22 180 Level FlightAware
03:55PM 51.8750 0.2240 226° Southwest 16 18 240 Level FlightAware
03:55PM 51.8740 0.2230 212° Southwest 14 16 300 Level FlightAware
03:56PM 51.8750 0.2210 309° West 10 12 360 Level FlightAware
03:56PM 51.8750 0.2200 270° West 4 5 420 Level FlightAware
03:57PM 51.8760 0.2210 32° Northeast 27 31 540 Level FlightAware
03:58PM 51.8870 0.2380 44° Northeast 159 183 1,080 Level FlightAware
03:58PM 51.9020 0.2610 43° Northeast 181 208 1,000 2,880 Climbing FlightAware
03:58PM 51.9140 0.2790 43° Northeast 172 198 2,200 2,760 Climbing FlightAware
03:59PM 51.9310 0.3010 39° Northeast 179 206 3,100 1,800 Climbing FlightAware
03:59PM 51.9420 0.3020 North 185 213 3,400 1,200 Climbing FlightAware
03:59PM 51.9550 0.2870 325° Northwest 215 247 3,700 1,200 Climbing FlightAware
04:00PM 51.9600 0.2720 298° West 237 273 3,900 1,440 Climbing FlightAware
04:00PM 51.9650 0.2480 289° West 244 281 4,300 1,200 Climbing FlightAware
04:00PM 51.9730 0.1990 289° West 275 316 4,700 720 Climbing FlightAware
04:00PM 51.9755 0.1822 289° West 272 313 4,700 960 Level FlightAware UK
04:01PM 51.9800 0.1490 289° West 288 331 5,100 1,200 Climbing FlightAware
04:01PM 51.9811 0.1310 289° West 290 334 5,200 1,500 Climbing FlightAware UK
04:01PM 51.9771 0.0989 265° West 321 369 5,600 3,060 Climbing FlightAware ADS-B
04:01PM 51.9684 0.0642 248° West 310 357 6,700 3,600 Climbing FlightAware ADS-B
04:01PM 51.9617 0.0367 248° West 310 357 7,300 2,520 Climbing FlightAware ADS-B
04:02PM 51.9538 0.0040 249° West 313 360 7,900 2,460 Climbing FlightAware ADS-B
04:02PM 51.9453 -0.0310 249° West 315 362 8,600 2,460 Climbing FlightAware ADS-B
04:02PM 51.9374 -0.0636 249° West 317 365 9,200 2,580 Climbing FlightAware ADS-B
04:02PM 51.9295 -0.0968 249° West 317 365 9,900 2,040 Climbing FlightAware ADS-B
04:03PM 51.9132 -0.1661 249° West 335 386 10,800 1,560 Climbing FlightAware ADS-B
04:03PM 51.8957 -0.2408 249° West 365 420 11,500 1,260 Climbing FlightAware ADS-B
04:04PM 51.8767 -0.3225 249° West 395 455 12,100 1,560 Climbing FlightAware ADS-B
04:04PM 51.8567 -0.4104 250° West 413 475 13,100 2,400 Climbing FlightAware ADS-B
04:05PM 51.8364 -0.4988 250° West 416 479 14,600 2,820 Climbing FlightAware ADS-B
04:05PM 51.8156 -0.5879 249° West 420 483 16,000 2,580 Climbing FlightAware ADS-B
04:06PM 51.7947 -0.6775 249° West 426 490 17,200 2,400 Climbing FlightAware ADS-B
04:07PM 51.7727 -0.7703 249° West 429 494 18,500 2,400 Climbing FlightAware ADS-B
04:07PM 51.7508 -0.8603 249° West 433 498 19,700 2,280 Climbing FlightAware ADS-B
04:08PM 51.7280 -0.9532 248° West 438 504 20,800 1,320 Climbing FlightAware ADS-B
04:08PM 51.7050 -1.0455 248° West 443 510 21,100 1,200 Climbing FlightAware ADS-B
04:09PM 51.6812 -1.1413 248° West 444 511 22,100 1,860 Climbing FlightAware ADS-B
04:09PM 51.6580 -1.2354 248° West 451 519 23,000 1,800 Climbing FlightAware ADS-B
04:09PM 51.6440 -1.2948 249° West 454 522 23,600 1,800 Climbing FlightAware ADS-B
04:10PM 51.6325 -1.3708 256° West 456 525 24,300 1,680 Climbing FlightAware ADS-B
04:10PM 51.6299 -1.4481 267° West 458 527 24,900 1,560 Climbing FlightAware ADS-B
04:10PM 51.6311 -1.4714 275° West 459 528 25,100 1,620 Climbing FlightAware ADS-B
04:11PM 51.6392 -1.5747 277° West 463 533 25,900 1,560 Climbing FlightAware ADS-B
04:11PM 51.6478 -1.6789 278° West 466 536 26,700 1,920 Climbing FlightAware ADS-B
04:12PM 51.6570 -1.7840 278° West 460 529 27,900 2,100 Climbing FlightAware ADS-B
04:12PM 51.6680 -1.9095 278° West 459 528 29,100 1,800 Climbing FlightAware ADS-B
04:13PM 51.6771 -2.0156 278° West 457 526 30,000 1,140 Climbing FlightAware ADS-B
04:13PM 51.6857 -2.1178 278° West 458 527 30,300 1,200 Climbing FlightAware ADS-B
04:14PM 51.6941 -2.2192 278° West 454 522 31,200 1,560 Climbing FlightAware ADS-B
04:14PM 51.7025 -2.3237 277° West 453 521 31,900 1,320 Climbing FlightAware ADS-B
04:15PM 51.7107 -2.4257 277° West 451 519 32,600 1,320 Climbing FlightAware ADS-B
04:15PM 51.7187 -2.5274 277° West 447 514 33,300 1,140 Climbing FlightAware ADS-B
04:16PM 51.7264 -2.6267 277° West 447 514 33,800 780 Climbing FlightAware ADS-B
04:16PM 51.7340 -2.7289 277° West 449 517 34,100 240 Climbing FlightAware ADS-B
04:17PM 51.7415 -2.8313 277° West 448 516 34,100  Level FlightAware ADS-B
04:17PM 51.7490 -2.9350 277° West 448 516 34,100  Level FlightAware ADS-B
04:18PM 51.7560 -3.0310 277° West 448 516 34,100  Level FlightAware
04:18PM 51.7604 -3.0926 277° West 448 516 34,100  Level FlightAware ADS-B
04:19PM 51.7760 -3.3142 277° West 448 516 34,100  Level FlightAware ADS-B
04:20PM 51.7865 -3.4670 276° West 448 516 34,100  Level FlightAware ADS-B
04:21PM 51.7960 -3.6076 276° West 448 516 34,100  Level FlightAware ADS-B
04:21PM 51.8040 -3.7240 276° West 449 517 34,100  Level FlightAware
04:22PM 51.8110 -3.8350 276° West 449 517 34,100  Level FlightAware
04:23PM 51.8210 -3.9910 276° West 450 518 34,100 -120 Level FlightAware
04:23PM 51.8293 -4.1258 276° West 462 532 34,000  Descending FlightAware UK
04:23PM 51.8290 -4.1180 276° West 450 518 34,100  Climbing FlightAware
04:24PM 51.8356 -4.2263 276° West 462 532 34,000  Descending FlightAware UK
04:24PM 51.8360 -4.2260 276° West 450 518 34,100  Climbing FlightAware
04:25PM 51.8428 -4.3464 276° West 462 532 34,000  Descending FlightAware UK
04:25PM 51.8460 -4.3970 276° West 451 519 34,100 60 Climbing FlightAware
04:25PM 51.8540 -4.5320 276° West 450 518 34,100 -120 Level FlightAware
04:26PM 51.8606 -4.6486 276° West 464 534 34,000  Descending FlightAware UK
04:26PM 51.8610 -4.6540 276° West 450 518 34,100 120 Climbing FlightAware
04:27PM 51.8690 -4.7880 276° West 451 519 34,100  Level FlightAware
04:27PM 51.8760 -4.9220 275° West 451 519 34,100  Level FlightAware
04:28PM 51.8830 -5.0510 275° West 451 519 34,100 -120 Level FlightAware
04:29PM 51.8898 -5.1724 275° West 462 532 34,000  Descending FlightAware UK
04:29PM 51.8910 -5.1990 275° West 451 519 34,100 120 Climbing FlightAware
04:29PM 51.8980 -5.3340 275° West 451 519 34,100  Level FlightAware
04:30PM 51.9050 -5.4700 275° West 452 520 34,100 -180 Level FlightAware
04:30PM 51.9051 -5.4755 275° West 462 532 34,000 -240 Descending FlightAware UK
04:31PM 51.9103 -5.5767 275° West 460 529 34,000 120 Level FlightAware UK
04:31PM 51.9120 -5.6110 275° West 453 521 34,100 60 Climbing FlightAware
04:32PM 51.9200 -5.7630 275° West 459 528 34,100 -120 Level FlightAware
04:32PM 51.9250 -5.8839 275° West 468 539 34,000  Descending FlightAware UK
04:32PM 51.9260 -5.9000 275° West 462 532 34,100 120 Climbing FlightAware
04:33PM 51.9310 -6.0150 274° West 463 533 34,100  Level FlightAware
04:34PM 51.9380 -6.1680 274° West 465 535 34,100 -120 Level FlightAware
04:34PM 51.9448 -6.3206 274° West 466 536 34,000  Descending FlightAware UK
04:34PM 51.9450 -6.3200 274° West 468 539 34,100  Climbing FlightAware
04:35PM 51.9491 -6.4256 274° West 466 536 34,000  Descending FlightAware UK
04:35PM 51.9510 -6.4570 274° West 470 541 34,100 120 Climbing FlightAware
04:36PM 51.9570 -6.6030 274° West 471 542 34,100 -120 Level FlightAware
04:36PM 51.9625 -6.7431 274° West 468 539 34,000  Descending FlightAware UK
04:36PM 51.9630 -6.7570 274° West 473 544 34,100 120 Climbing FlightAware
04:37PM 51.9690 -6.9130 274° West 475 547 34,100  Level FlightAware
04:38PM 51.9740 -7.0420 274° West 476 548 34,100 -180 Level FlightAware
04:38PM 51.9750 -7.0635 274° West 470 541 34,000  Descending FlightAware UK
04:38PM 51.9790 -7.1780 274° West 477 549 34,100  Climbing FlightAware
04:38PM 51.9794 -7.1915 274° West 468 539 34,000 -240 Descending FlightAware UK
04:39PM 51.9831 -7.2988 274° West 470 541 34,000 120 Level FlightAware UK
04:39PM 51.9840 -7.3200 274° West 478 550 34,100 120 Climbing FlightAware
04:40PM 51.9890 -7.4720 273° West 479 551 34,100  Level FlightAware
04:40PM 51.9930 -7.5890 273° West 481 554 34,100 -120 Level FlightAware
04:41PM 51.9971 -7.7304 273° West 468 539 34,000  Descending FlightAware UK
04:41PM 51.9980 -7.7570 273° West 482 555 34,100 120 Climbing FlightAware
04:42PM 52.0030 -7.8980 273° West 483 556 34,100  Level FlightAware
04:42PM 52.0070 -8.0450 273° West 485 558 34,100 -180 Level FlightAware
04:42PM 52.0072 -8.0566 273° West 466 536 34,000 -240 Descending FlightAware UK
04:43PM 52.0100 -8.1657 273° West 468 539 34,000 120 Level FlightAware UK
04:43PM 52.0120 -8.2100 273° West 486 559 34,100 60 Climbing FlightAware
04:44PM 52.0160 -8.3580 273° West 488 562 34,100 -120 Level FlightAware
04:44PM 52.0193 -8.5159 273° West 468 539 34,000  Descending FlightAware UK
04:45PM 52.0190 -8.5150 273° West 489 563 34,100 120 Climbing FlightAware
04:45PM 52.0230 -8.6600 273° West 490 564 34,100  Level FlightAware
04:46PM 52.0260 -8.8090 272° West 491 565 34,100 -120 Level FlightAware
04:46PM 52.0296 -8.9577 272° West 474 545 34,000  Descending FlightAware UK
04:46PM 52.0290 -8.9480 272° West 490 564 34,100 120 Climbing FlightAware
04:47PM 52.0320 -9.0840 272° West 491 565 34,100  Level FlightAware
04:48PM 52.0350 -9.2270 272° West 490 564 34,100  Level FlightAware
04:48PM 52.0370 -9.3770 271° West 489 563 34,100  Level FlightAware
04:49PM 52.0400 -9.5150 272° West 488 562 34,100  Level FlightAware
04:50PM 52.0420 -9.6660 271° West 487 560 34,100  Level FlightAware
04:50PM 52.0440 -9.8070 271° West 486 559 34,100  Level FlightAware
04:51PM 52.0460 -9.9750 271° West 485 558 34,100  Level FlightAware
04:52PM 52.0480 -10.1470 271° West 484 557 34,100  Level FlightAware
04:53PM 52.0500 -10.2920 271° West 483 556 34,100  Level FlightAware
04:53PM 52.0510 -10.4320 271° West 482 555 34,100  Level FlightAware
04:54PM 52.0520 -10.5970 271° West 481 554 34,100  Level FlightAware
04:55PM 52.0530 -10.7370 271° West 481 554 34,100  Level FlightAware
04:55PM 52.0540 -10.9020 271° West 480 552 34,100  Level FlightAware
04:56PM 52.0540 -11.0380 270° West 479 551 34,100  Level FlightAware
04:57PM 52.0550 -11.2020 271° West 478 550 34,100  Level FlightAware
04:57PM 52.0550 -11.3480 270° West 478 550 34,100  Level FlightAware
04:58PM 52.0550 -11.5160 270° West 477 549 34,100  Level FlightAware
04:59PM 52.0550 -11.6930 270° West 477 549 34,100  Level FlightAware
05:00PM 52.0540 -11.8770 270° West 476 548 34,100  Level FlightAware
05:01PM 52.0530 -12.0240 269° West 476 548 34,100  Level FlightAware
05:01PM 52.0520 -12.1480 269° West 476 548 34,100  Level FlightAware
05:02PM 52.0510 -12.2600 269° West 476 548 34,100  Level FlightAware
05:03PM 52.0490 -12.4060 269° West 476 548 34,100  Level FlightAware
05:03PM 52.0480 -12.5160 269° West 476 548 34,100  Level FlightAware
05:04PM 52.0470 -12.6290 269° West 476 548 34,100  Level FlightAware
05:05PM 52.0450 -12.7750 269° West 476 548 34,100  Level FlightAware
05:05PM 52.0440 -12.8780 269° West 476 548 34,100  Level FlightAware
05:06PM 52.0430 -13.0240 269° West 476 548 34,100  Level FlightAware
05:07PM 52.0410 -13.1340 268° West 476 548 34,100  Level FlightAware
05:07PM 52.0400 -13.2800 269° West 476 548 34,100  Level FlightAware
05:08PM 52.0390 -13.3920 269° West 476 548 34,100  Level FlightAware
05:09PM 52.0370 -13.5410 269° West 476 548 34,100  Level FlightAware
05:09PM 52.0360 -13.6510 269° West 476 548 34,100  Level FlightAware
05:10PM 52.0340 -13.7970 269° West 476 548 34,100 -120 Level FlightAware
05:13PM 52.0967 -14.2075 284° West  Level Estimated
05:14PM 52.1246 -14.3931 284° West  Level Estimated
05:15PM 52.1521 -14.5789 284° West  Level Estimated
05:16PM 52.1794 -14.7650 284° West  Level Estimated
05:17PM 52.2064 -14.9512 283° West  Level Estimated
05:18PM 52.2330 -15.1377 283° West  Level Estimated
05:19PM 52.2594 -15.3244 283° West  Level Estimated
05:20PM 52.2855 -15.5113 283° West  Level Estimated
05:21PM 52.3113 -15.6985 283° West  Level Estimated
05:22PM 52.3368 -15.8859 283° West  Level Estimated
05:23PM 52.3620 -16.0735 282° West  Level Estimated
05:24PM 52.3869 -16.2612 282° West  Level Estimated
05:25PM 52.4115 -16.4493 282° West  Level Estimated
05:26PM 52.4358 -16.6375 282° West  Level Estimated
05:27PM 52.4598 -16.8259 282° West  Level Estimated
05:28PM 52.4835 -17.0145 282° West  Level Estimated
05:29PM 52.5069 -17.2034 282° West  Level Estimated
05:30PM 52.5300 -17.3924 281° West  Level Estimated
05:31PM 52.5528 -17.5816 281° West  Level Estimated
05:32PM 52.5753 -17.7710 281° West  Level Estimated
05:33PM 52.5975 -17.9607 281° West  Level Estimated
05:34PM 52.6193 -18.1505 281° West  Level Estimated
05:35PM 52.6409 -18.3405 281° West  Level Estimated
05:36PM 52.6622 -18.5306 281° West  Level Estimated
05:37PM 52.6832 -18.7210 280° West  Level Estimated
05:38PM 52.7039 -18.9116 280° West  Level Estimated
05:39PM 52.7242 -19.1023 280° West  Level Estimated
05:39PM 52.0000 -20.0000 274° West 442 509 32,000  Level ETMS Enhanced Traffic Management System
05:40PM 52.7443 -19.2932 280° West  Level Estimated
05:41PM 52.7640 -19.4843 280° West  Level Estimated
05:42PM 52.7835 -19.6755 280° West  Level Estimated
05:43PM 52.8026 -19.8669 279° West  Level Estimated
05:44PM 52.8215 -20.0585 279° West  Level Estimated
05:45PM 52.0447 -21.1975 273° West 442 509 32,000  Level FlightAware Transoceanic
05:46PM 52.0510 -21.3973 273° West 442 509 32,000  Level FlightAware Transoceanic
05:47PM 52.0569 -21.5971 273° West 442 509 32,000  Level FlightAware Transoceanic
05:48PM 52.0625 -21.7970 273° West 442 509 32,000  Level FlightAware Transoceanic
05:49PM 52.0678 -21.9970 272° West 442 509 32,000  Level FlightAware Transoceanic
05:50PM 52.0727 -22.1970 272° West 442 509 32,000  Level FlightAware Transoceanic
05:51PM 52.0773 -22.3970 272° West 442 509 32,000  Level FlightAware Transoceanic
05:52PM 52.0815 -22.5971 272° West 442 509 32,000  Level FlightAware Transoceanic
05:53PM 52.0854 -22.7972 272° West 442 509 32,000  Level FlightAware Transoceanic
05:54PM 52.0890 -22.9973 272° West 442 509 32,000  Level FlightAware Transoceanic
05:55PM 52.0922 -23.1975 271° West 442 509 32,000  Level FlightAware Transoceanic
05:56PM 52.0951 -23.3977 271° West 442 509 32,000  Level FlightAware Transoceanic
05:57PM 52.0976 -23.5980 271° West 442 509 32,000  Level FlightAware Transoceanic
05:58PM 52.0998 -23.7982 271° West 442 509 32,000  Level FlightAware Transoceanic
05:59PM 52.1017 -23.9985 271° West 442 509 32,000  Level FlightAware Transoceanic
06:00PM 52.1032 -24.1988 271° West 442 509 32,000  Level FlightAware Transoceanic
06:01PM 52.1044 -24.3991 270° West 442 509 32,000  Level FlightAware Transoceanic
06:02PM 52.1053 -24.5994 270° West 442 509 32,000  Level FlightAware Transoceanic
06:03PM 52.1058 -24.7997 270° West 442 509 32,000  Level FlightAware Transoceanic
06:04PM 52.1059 -25.0000 270° West 442 509 32,000  Level FlightAware Transoceanic
06:05PM 52.1058 -25.2003 270° West 442 509 32,000  Level FlightAware Transoceanic
06:06PM 52.1053 -25.4006 270° West 442 509 32,000  Level FlightAware Transoceanic
06:07PM 52.1044 -25.6009 270° West 442 509 32,000  Level FlightAware Transoceanic
06:08PM 52.1032 -25.8012 269° West 442 509 32,000  Level FlightAware Transoceanic
06:09PM 52.1017 -26.0015 269° West 442 509 32,000  Level FlightAware Transoceanic
06:10PM 52.0998 -26.2018 269° West 442 509 32,000  Level FlightAware Transoceanic
06:11PM 52.0976 -26.4020 269° West 442 509 32,000  Level FlightAware Transoceanic
06:12PM 52.0951 -26.6023 269° West 442 509 32,000  Level FlightAware Transoceanic
06:13PM 52.0922 -26.8025 269° West 442 509 32,000  Level FlightAware Transoceanic
06:14PM 52.0890 -27.0027 268° West 442 509 32,000  Level FlightAware Transoceanic
06:15PM 52.0854 -27.2028 268° West 442 509 32,000  Level FlightAware Transoceanic
06:16PM 52.0815 -27.4029 268° West 442 509 32,000  Level FlightAware Transoceanic
06:17PM 52.0773 -27.6030 268° West 442 509 32,000  Level FlightAware Transoceanic
06:18PM 52.0727 -27.8030 268° West 442 509 32,000  Level FlightAware Transoceanic
06:19PM 52.0678 -28.0030 268° West 442 509 32,000  Level FlightAware Transoceanic
06:20PM 52.0625 -28.2030 267° West 442 509 32,000  Level FlightAware Transoceanic
06:21PM 52.0569 -28.4029 267° West 442 509 32,000  Level FlightAware Transoceanic
06:22PM 52.0510 -28.6027 267° West 442 509 32,000  Level FlightAware Transoceanic
06:23PM 52.0447 -28.8025 267° West 442 509 32,000  Level FlightAware Transoceanic
06:24PM 52.0381 -29.0023 267° West 442 509 32,000  Level FlightAware Transoceanic
06:25PM 52.0312 -29.2020 267° West 442 509 32,000  Level FlightAware Transoceanic
06:26PM 52.0239 -29.4016 267° West 442 509 32,000  Level FlightAware Transoceanic
06:27PM 52.0163 -29.6011 266° West 442 509 32,000  Level FlightAware Transoceanic
06:28PM 52.0083 -29.8006 266° West 442 509 32,000  Level FlightAware Transoceanic
06:29PM 52.0141 -29.9910 273° West  Level Estimated
06:30PM 52.0197 -30.1814 273° West  Level Estimated
06:31PM 52.0249 -30.3718 273° West  Level Estimated
06:32PM 52.0299 -30.5624 272° West  Level Estimated
06:33PM 52.0345 -30.7529 272° West  Level Estimated
06:34PM 52.0388 -30.9435 272° West  Level Estimated
06:35PM 52.0429 -31.1341 272° West  Level Estimated
06:36PM 52.0466 -31.3248 272° West  Level Estimated
06:37PM 52.0500 -31.5155 272° West  Level Estimated
06:38PM 52.0531 -31.7062 272° West  Level Estimated
06:39PM 52.0558 -31.8969 271° West  Level Estimated
06:40PM 52.0583 -32.0877 271° West  Level Estimated
06:41PM 52.0605 -32.2785 271° West  Level Estimated
06:42PM 52.0623 -32.4693 271° West  Level Estimated
06:43PM 52.0639 -32.6601 271° West  Level Estimated
06:44PM 52.0651 -32.8509 271° West  Level Estimated
06:45PM 52.0661 -33.0418 271° West  Level Estimated
06:46PM 52.0667 -33.2326 270° West  Level Estimated
06:47PM 52.0670 -33.4234 270° West  Level Estimated
06:48PM 52.0670 -33.6143 270° West  Level Estimated
06:49PM 52.0667 -33.8051 270° West  Level Estimated
06:50PM 52.0661 -33.9960 270° West  Level Estimated
06:51PM 52.0652 -34.1868 270° West  Level Estimated
06:52PM 52.0640 -34.3777 269° West  Level Estimated
06:53PM 52.0625 -34.5685 269° West  Level Estimated
06:54PM 52.0606 -34.7593 269° West  Level Estimated
06:55PM 52.0585 -34.9501 269° West  Level Estimated
06:56PM 52.0560 -35.1408 269° West  Level Estimated
06:57PM 52.0533 -35.3316 269° West  Level Estimated
06:58PM 52.0502 -35.5223 269° West  Level Estimated
06:59PM 52.0468 -35.7130 268° West  Level Estimated
07:00PM 52.0431 -35.9036 268° West  Level Estimated
07:01PM 52.0391 -36.0942 268° West  Level Estimated
07:02PM 52.0348 -36.2848 268° West  Level Estimated
07:03PM 52.0302 -36.4754 268° West  Level Estimated
07:04PM 52.0253 -36.6659 268° West  Level Estimated
07:05PM 52.0201 -36.8564 268° West  Level Estimated
07:06PM 52.0145 -37.0468 267° West  Level Estimated
07:07PM 52.0087 -37.2372 267° West  Level Estimated
07:08PM 52.0026 -37.4275 267° West  Level Estimated
07:09PM 51.9961 -37.6178 267° West  Level Estimated
07:10PM 51.9894 -37.8080 267° West  Level Estimated
07:11PM 51.9823 -37.9981 267° West  Level Estimated
07:12PM 51.9749 -38.1882 266° West  Level Estimated
07:13PM 51.9673 -38.3783 266° West  Level Estimated
07:14PM 51.9593 -38.5682 266° West  Level Estimated
07:15PM 51.9510 -38.7581 266° West  Level Estimated
07:16PM 51.9424 -38.9480 266° West  Level Estimated
07:17PM 51.9335 -39.1377 266° West  Level Estimated
07:18PM 51.9243 -39.3274 266° West  Level Estimated
07:19PM 51.9148 -39.5170 265° West  Level Estimated
07:20PM 51.9050 -39.7065 265° West  Level Estimated
07:21PM 51.8949 -39.8959 265° West  Level Estimated
07:22PM 51.8844 -40.0853 265° West  Level Estimated
07:23PM 51.8737 -40.2745 265° West  Level Estimated
07:24PM 51.8627 -40.4637 265° West  Level Estimated
07:25PM 51.8514 -40.6527 265° West  Level Estimated
07:26PM 51.8397 -40.8417 264° West  Level Estimated
07:27PM 51.8278 -41.0306 264° West  Level Estimated
07:28PM 51.8156 -41.2193 264° West  Level Estimated
07:29PM 51.8030 -41.4080 264° West  Level Estimated
07:30PM 51.7902 -41.5966 264° West  Level Estimated
07:31PM 51.7771 -41.7850 264° West  Level Estimated
07:32PM 51.7636 -41.9734 263° West  Level Estimated
07:33PM 51.7499 -42.1616 263° West  Level Estimated
07:34PM 51.7358 -42.3497 263° West  Level Estimated
07:35PM 51.7215 -42.5377 263° West  Level Estimated
07:36PM 51.7068 -42.7256 263° West  Level Estimated
07:37PM 51.6919 -42.9133 263° West  Level Estimated
07:38PM 51.6767 -43.1010 263° West  Level Estimated
07:39PM 51.6611 -43.2885 262° West  Level Estimated
07:40PM 51.6453 -43.4758 262° West  Level Estimated
07:41PM 51.6292 -43.6631 262° West  Level Estimated
07:42PM 51.6127 -43.8502 262° West  Level Estimated
07:43PM 51.5960 -44.0371 262° West  Level Estimated
07:44PM 51.5789 -44.2240 262° West  Level Estimated
07:45PM 51.5616 -44.4107 262° West  Level Estimated
07:46PM 51.5440 -44.5972 261° West  Level Estimated
07:47PM 51.5261 -44.7836 261° West  Level Estimated
07:48PM 51.5079 -44.9698 261° West  Level Estimated
07:49PM 51.4894 -45.1559 261° West  Level Estimated
07:50PM 51.4706 -45.3419 261° West  Level Estimated
07:51PM 51.4515 -45.5277 261° West  Level Estimated
07:52PM 51.4321 -45.7133 261° West  Level Estimated
07:53PM 51.4124 -45.8988 260° West  Level Estimated
07:54PM 51.3924 -46.0841 260° West  Level Estimated
07:55PM 51.3722 -46.2693 260° West  Level Estimated
07:56PM 51.3516 -46.4543 260° West  Level Estimated
07:57PM 51.3307 -46.6391 260° West  Level Estimated
07:58PM 51.3096 -46.8237 260° West  Level Estimated
07:59PM 51.2882 -47.0082 260° West  Level Estimated
08:00PM 51.2664 -47.1925 259° West  Level Estimated
08:01PM 51.2444 -47.3767 259° West  Level Estimated
08:02PM 51.2221 -47.5606 259° West  Level Estimated
08:03PM 51.1996 -47.7444 259° West  Level Estimated
08:04PM 51.1767 -47.9280 259° West  Level Estimated
08:05PM 51.1535 -48.1114 259° West  Level Estimated
08:06PM 51.1301 -48.2946 259° West  Level Estimated
08:07PM 51.1063 -48.4777 258° West  Level Estimated
08:08PM 51.0823 -48.6605 258° West  Level Estimated
08:09PM 51.0580 -48.8432 258° West  Level Estimated
08:10PM 51.0334 -49.0257 258° West  Level Estimated
08:11PM 51.0086 -49.2079 258° West  Level Estimated
08:12PM 50.9834 -49.3900 258° West  Level Estimated
08:13PM 50.9580 -49.5719 258° West  Level Estimated
08:14PM 50.9323 -49.7536 257° West  Level Estimated
08:15PM 50.9063 -49.9350 257° West  Level Estimated
08:16PM 50.8800 -50.1163 257° West  Level Estimated
08:17PM 50.8534 -50.2974 257° West  Level Estimated
08:18PM 50.8266 -50.4782 257° West  Level Estimated
08:19PM 50.7995 -50.6589 257° West  Level Estimated
08:20PM 50.7714 -50.8437 257° West  Level Estimated
08:20PM 46.8880 -50.9100 256° West 485 558 32,100  Level FlightAware
08:21PM 50.7430 -51.0282 256° West  Level Estimated
08:21PM 46.8700 -51.0510 259° West 486 559 32,100  Level FlightAware
08:22PM 46.8540 -51.1790 260° West 493 567 32,500 960 Climbing FlightAware
08:22PM 46.8340 -51.3290 259° West 497 572 33,500 1,080 Climbing FlightAware
08:23PM 46.8180 -51.4560 260° West 496 571 34,100 420 Climbing FlightAware
08:24PM 46.8000 -51.5900 259° West 496 571 34,100  Level FlightAware
08:24PM 46.7810 -51.7290 259° West 496 571 34,100  Level FlightAware
08:25PM 46.7600 -51.8890 259° West 496 571 34,100  Level FlightAware
08:26PM 46.7420 -52.0180 259° West 495 570 34,100  Level FlightAware
08:27PM 46.7220 -52.1630 259° West 495 570 34,100  Level FlightAware
08:27PM 46.7050 -52.2870 259° West 493 567 34,100  Level FlightAware
08:28PM 46.6840 -52.4340 258° West 492 566 34,100  Level FlightAware
08:29PM 46.6650 -52.5720 259° West 491 565 34,100  Level FlightAware
08:29PM 46.6450 -52.7080 258° West 489 563 34,100  Level FlightAware
08:30PM 46.6270 -52.8320 258° West 487 560 34,100  Level FlightAware
08:31PM 46.6080 -52.9660 258° West 484 557 34,100  Level FlightAware
08:31PM 46.5870 -53.1100 258° West 483 556 34,100  Level FlightAware
08:32PM 46.5660 -53.2490 258° West 482 555 34,100  Level FlightAware
08:33PM 46.5470 -53.3790 258° West 481 554 34,100  Level FlightAware
08:34PM 46.5280 -53.5030 257° West 481 554 34,100  Level FlightAware
08:34PM 46.5070 -53.6420 258° West 480 552 34,100  Level FlightAware
08:35PM 46.4890 -53.7560 257° West 480 552 34,100  Level FlightAware
08:36PM 46.4700 -53.8820 258° West 480 552 34,100  Level FlightAware
08:36PM 46.4490 -54.0130 257° West 480 552 34,100  Level FlightAware
08:37PM 46.4170 -54.2200 257° West 480 552 34,100  Level FlightAware
08:38PM 46.3970 -54.3430 257° West 480 552 34,100  Level FlightAware
08:39PM 46.3770 -54.4700 257° West 480 552 34,100  Level FlightAware
08:40PM 46.3470 -54.6570 257° West 479 551 34,100  Level FlightAware
08:40PM 46.3270 -54.7800 257° West 479 551 34,100  Level FlightAware
08:41PM 46.3060 -54.9090 257° West 479 551 34,100  Level FlightAware
08:42PM 46.2800 -55.0660 257° West 480 552 34,100  Level FlightAware
08:43PM 46.2560 -55.2050 256° West 479 551 34,100  Level FlightAware
08:43PM 46.2380 -55.3130 256° West 479 551 34,100  Level FlightAware
08:44PM 46.2170 -55.4380 256° West 478 550 34,100  Level FlightAware
08:45PM 46.1960 -55.5600 256° West 478 550 34,100  Level FlightAware
08:45PM 46.1720 -55.7010 256° West 478 550 34,100  Level FlightAware
08:46PM 46.1510 -55.8250 256° West 477 549 34,100  Level FlightAware
08:47PM 46.1260 -55.9640 255° West 475 547 34,100  Level FlightAware
08:47PM 46.1050 -56.0860 256° West 475 547 34,100  Level FlightAware
08:48PM 46.0830 -56.2090 256° West 474 545 34,100  Level FlightAware
08:49PM 46.0630 -56.3240 256° West 473 544 34,100  Level FlightAware
08:49PM 46.0370 -56.4650 255° West 474 545 34,100  Level FlightAware
08:50PM 46.0170 -56.5780 256° West 475 547 34,100  Level FlightAware
08:51PM 45.9930 -56.7110 255° West 476 548 34,100  Level FlightAware
08:52PM 45.9690 -56.8390 255° West 476 548 34,100  Level FlightAware
08:52PM 45.9370 -57.0160 255° West 475 547 34,100  Level FlightAware
08:53PM 45.9190 -57.1120 255° West 475 547 34,100  Level FlightAware
08:54PM 45.9010 -57.2050 254° West 475 547 34,100  Level FlightAware
08:54PM 45.8780 -57.3290 255° West 475 547 34,100  Level FlightAware
08:55PM 45.8460 -57.4970 255° West 474 545 34,100  Level FlightAware
08:56PM 45.8250 -57.6090 255° West 474 545 34,100  Level FlightAware
08:56PM 45.7970 -57.7550 255° West 474 545 34,100  Level FlightAware
08:57PM 45.7730 -57.8770 254° West 473 544 34,100  Level FlightAware
08:58PM 45.7460 -58.0150 254° West 472 543 34,100  Level FlightAware
08:59PM 45.7220 -58.1350 254° West 471 542 34,100  Level FlightAware
08:59PM 45.6970 -58.2650 255° West 471 542 34,100  Level FlightAware
09:00PM 45.6780 -58.3610 254° West 471 542 34,100  Level FlightAware
09:01PM 45.6520 -58.4920 254° West 471 542 34,100  Level FlightAware
09:01PM 45.6270 -58.6130 254° West 471 542 34,100  Level FlightAware
09:02PM 45.6010 -58.7450 254° West 470 541 34,100  Level FlightAware
09:03PM 45.5760 -58.8650 253° West 469 540 34,100  Level FlightAware
09:03PM 45.5520 -58.9840 254° West 468 539 34,100  Level FlightAware
09:04PM 45.5250 -59.1120 253° West 468 539 34,100  Level FlightAware
09:05PM 45.4980 -59.2430 254° West 468 539 34,100  Level FlightAware
09:05PM 45.4730 -59.3610 253° West 467 537 34,100  Level FlightAware
09:06PM 45.4490 -59.4780 254° West 466 536 34,100  Level FlightAware
09:07PM 45.4220 -59.6070 253° West 464 534 34,100  Level FlightAware
09:08PM 45.3940 -59.7360 253° West 464 534 34,100  Level FlightAware
09:08PM 45.3680 -59.8600 253° West 464 534 34,100  Level FlightAware
09:09PM 45.3420 -59.9780 253° West 464 534 34,100  Level FlightAware
09:10PM 45.3140 -60.1070 253° West 464 534 34,100  Level FlightAware
09:10PM 45.2900 -60.2210 253° West 463 533 34,100  Level FlightAware
09:11PM 45.2630 -60.3440 253° West 463 533 34,100  Level FlightAware
09:12PM 45.2340 -60.4730 252° West 463 533 34,100  Level FlightAware
09:12PM 45.2090 -60.5890 253° West 462 532 34,100  Level FlightAware
09:13PM 45.1820 -60.7090 252° West 462 532 34,100  Level FlightAware
09:14PM 45.1570 -60.8180 252° West 462 532 34,100  Level FlightAware
09:15PM 45.1300 -60.9380 252° West 462 532 34,100  Level FlightAware
09:15PM 45.1100 -61.0260 252° West 462 532 34,100  Level FlightAware
09:16PM 45.0830 -61.1440 252° West 462 532 34,100  Level FlightAware
09:17PM 45.0620 -61.2320 251° West 462 532 34,100  Level FlightAware
09:17PM 45.0350 -61.3490 252° West 462 532 34,100  Level FlightAware
09:18PM 45.0150 -61.4400 253° West 462 532 34,100  Level FlightAware
09:19PM 44.9880 -61.5570 252° West 462 532 34,100  Level FlightAware
09:20PM 44.9610 -61.6740 252° West 462 532 34,100  Level FlightAware
09:20PM 44.9400 -61.7640 252° West 462 532 34,100  Level FlightAware
09:21PM 44.9200 -61.8520 252° West 462 532 34,100  Level FlightAware
09:21PM 44.9000 -61.9400 252° West 462 532 34,100  Level FlightAware
09:22PM 44.8720 -62.0600 252° West 462 532 34,100  Level FlightAware
09:23PM 44.8520 -62.1470 252° West 462 532 34,100  Level FlightAware
09:24PM 44.8250 -62.2640 252° West 462 532 34,100  Level FlightAware
09:25PM 44.7070 -62.7350 251° West 457 526 34,100  Level FlightAware
09:26PM 44.6810 -62.8410 251° West 457 526 34,100  Level FlightAware
09:27PM 44.6420 -63.0010 251° West 457 526 34,100  Level FlightAware
09:27PM 44.6150 -63.1090 251° West 457 526 34,100  Level FlightAware
09:28PM 44.5830 -63.2370 251° West 456 525 34,100  Level FlightAware
09:29PM 44.5540 -63.3500 250° West 457 526 34,100  Level FlightAware
09:29PM 44.5210 -63.4820 251° West 456 525 34,100  Level FlightAware
09:30PM 44.4940 -63.5870 250° West 456 525 34,100  Level FlightAware
09:31PM 44.4640 -63.7070 251° West 457 526 34,100  Level FlightAware
09:32PM 44.4380 -63.8080 250° West 456 525 34,100  Level FlightAware
09:32PM 44.4080 -63.9260 250° West 456 525 34,100  Level FlightAware
09:33PM 44.3800 -64.0320 250° West 455 524 34,100  Level FlightAware
09:33PM 44.3510 -64.1460 250° West 454 522 34,100  Level FlightAware
09:34PM 44.3210 -64.2610 250° West 455 524 34,100  Level FlightAware
09:35PM 44.2920 -64.3680 249° West 455 524 34,100  Level FlightAware
09:35PM 44.2630 -64.4780 250° West 456 525 34,100  Level FlightAware
09:36PM 44.2340 -64.5890 250° West 455 524 34,100  Level FlightAware
09:37PM 44.2080 -64.6880 250° West 454 522 34,100  Level FlightAware
09:38PM 44.1620 -64.8570 249° West 448 516 34,100  Level FlightAware
09:38PM 44.1320 -64.9690 250° West 447 514 34,100  Level FlightAware
09:39PM 44.1040 -65.0750 250° West 450 518 34,100  Level FlightAware
09:40PM 44.0700 -65.1980 249° West 446 513 34,100  Level FlightAware
09:41PM 44.0410 -65.3050 249° West 444 511 34,100  Level FlightAware
09:41PM 44.0120 -65.4110 249° West 445 512 34,100  Level FlightAware
09:42PM 43.9860 -65.5060 249° West 441 507 34,100  Level FlightAware
09:43PM 43.9530 -65.6240 249° West 443 510 34,100  Level FlightAware
09:43PM 43.9230 -65.7330 249° West 441 507 34,100  Level FlightAware
09:44PM 43.8980 -65.8240 249° West 444 511 34,100  Level FlightAware
09:45PM 43.8640 -65.9440 249° West 443 510 34,100  Level FlightAware
09:45PM 43.8350 -66.0500 249° West 443 510 34,100  Level FlightAware
09:46PM 43.8210 -66.1520 259° West 447 514 34,100  Level FlightAware
09:46PM 43.8130 -66.2610 264° West 445 512 34,100  Level FlightAware
09:47PM 43.8030 -66.3920 264° West 443 510 34,100  Level FlightAware
09:48PM 43.7960 -66.5030 265° West 442 509 34,100  Level FlightAware
09:49PM 43.7870 -66.6210 264° West 442 509 34,100  Level FlightAware
09:49PM 43.7780 -66.7430 264° West 441 507 34,100  Level FlightAware
09:50PM 43.7690 -66.8710 264° West 441 507 34,100  Level FlightAware
09:51PM 43.7610 -66.9710 264° West 439 505 34,100  Level FlightAware
09:51PM 43.7530 -67.0810 264° West 438 504 34,100  Level FlightAware
09:52PM 43.7390 -67.2040 261° West 434 499 34,100  Level FlightAware
09:53PM 43.7240 -67.3000 258° West 432 497 34,100  Level FlightAware
09:53PM 43.7060 -67.4060 257° West 432 497 34,100  Level FlightAware
09:54PM 43.6870 -67.5150 256° West 432 497 34,100  Level FlightAware
09:55PM 43.6680 -67.6220 256° West 432 497 34,100  Level FlightAware
09:55PM 43.6500 -67.7300 257° West 434 499 34,100  Level FlightAware
09:56PM 43.6280 -67.8550 256° West 434 499 34,100  Level FlightAware
09:57PM 43.6090 -67.9640 256° West 434 499 34,100  Level FlightAware
09:57PM 43.5920 -68.0620 257° West 432 497 34,100  Level FlightAware
09:58PM 43.5770 -68.1480 256° West 432 497 34,100  Level FlightAware
09:59PM 43.5570 -68.2570 256° West 432 497 34,100  Level FlightAware
09:59PM 43.5420 -68.3410 256° West 432 497 34,100  Level FlightAware
10:00PM 43.5270 -68.4260 256° West 432 497 34,100  Level FlightAware
10:01PM 43.5120 -68.5070 256° West 432 497 34,100  Level FlightAware
10:01PM 43.4920 -68.6190 256° West 432 497 34,100  Level FlightAware
10:02PM 43.4770 -68.7010 256° West 432 497 34,100  Level FlightAware
10:03PM 43.4570 -68.8100 256° West 432 497 34,100  Level FlightAware
10:03PM 43.4420 -68.8910 256° West 432 497 34,100  Level FlightAware
10:04PM 43.3970 -69.1450 256° West 429 494 34,100  Level FlightAware
10:05PM 43.3790 -69.2400 255° West 34,100  Level FlightAware
10:05PM 43.3610 -69.3400 256° West 426 490 34,100  Level FlightAware
10:06PM 43.3400 -69.4510 255° West 425 489 34,100  Level FlightAware
10:07PM 43.3190 -69.5600 255° West 427 491 34,100  Level FlightAware
10:08PM 43.2970 -69.6780 256° West 426 490 34,100  Level FlightAware
10:08PM 43.2770 -69.7830 255° West 426 490 34,100  Level FlightAware
10:09PM 43.2540 -69.9000 255° West 428 493 34,100  Level FlightAware
10:10PM 43.2330 -70.0070 255° West 428 493 34,100  Level FlightAware
10:10PM 43.2070 -70.1420 255° West 427 491 34,100  Level FlightAware
10:11PM 43.1830 -70.2640 255° West 425 489 34,100  Level FlightAware
10:12PM 43.1650 -70.3560 255° West 425 489 34,100  Level FlightAware
10:13PM 43.1440 -70.4600 255° West 424 488 34,100  Level FlightAware
10:13PM 43.1300 -70.5340 255° West 424 488 34,100  Level FlightAware
10:14PM 43.1090 -70.6380 255° West 423 487 34,100  Level FlightAware
10:14PM 43.0890 -70.7390 255° West 423 487 34,100  Level FlightAware
10:15PM 43.0680 -70.8430 255° West 422 486 34,100  Level FlightAware
10:16PM 43.0470 -70.9460 254° West 422 486 34,100  Level FlightAware
10:16PM 43.0270 -71.0430 254° West 422 486 34,100  Level FlightAware
10:17PM 43.0070 -71.1450 255° West 422 486 34,100  Level FlightAware
10:18PM 42.9830 -71.2590 254° West 421 484 34,100  Level FlightAware
10:18PM 42.9620 -71.3620 254° West 420 483 34,100  Level FlightAware
10:19PM 42.9390 -71.4730 254° West 419 482 34,100  Level FlightAware
10:20PM 42.9180 -71.5750 254° West 417 480 34,100  Level FlightAware
10:20PM 42.8940 -71.6860 254° West 418 481 34,100  Level FlightAware
10:21PM 42.8720 -71.7930 254° West 419 482 34,100  Level FlightAware
10:22PM 42.8500 -71.8950 254° West 416 479 34,100  Level FlightAware
10:23PM 42.8270 -72.0050 254° West 414 476 34,100  Level FlightAware
10:23PM 42.8030 -72.1160 254° West 413 475 34,100  Level FlightAware
10:24PM 42.7810 -72.2160 253° West 414 476 34,100  Level FlightAware
10:25PM 42.7600 -72.3160 254° West 415 478 34,100  Level FlightAware
10:25PM 42.7360 -72.4270 254° West 416 479 34,100  Level FlightAware
10:26PM 42.7130 -72.5310 253° West 416 479 34,100  Level FlightAware
10:27PM 42.6890 -72.6400 253° West 415 478 34,100  Level FlightAware
10:27PM 42.6680 -72.7350 253° West 413 475 34,100  Level FlightAware
10:28PM 42.6480 -72.8280 254° West 413 475 34,100  Level FlightAware
10:29PM 42.6250 -72.9280 253° West 413 475 34,100  Level FlightAware
10:29PM 42.6020 -73.0340 254° West 412 474 34,100  Level FlightAware
10:30PM 42.5850 -73.1080 253° West 412 474 34,100  Level FlightAware
10:31PM 42.5550 -73.2410 253° West 409 471 34,100  Level FlightAware
10:32PM 42.5340 -73.3320 253° West 410 472 34,100  Level FlightAware
10:32PM 42.5070 -73.4520 253° West 412 474 34,100  Level FlightAware
10:33PM 42.4870 -73.5400 253° West 413 475 34,100  Level FlightAware
10:34PM 42.4640 -73.6390 253° West 411 473 34,100  Level FlightAware
10:34PM 42.4390 -73.7490 253° West 411 473 34,100  Level FlightAware
10:35PM 42.4150 -73.8500 252° West 409 471 34,100  Level FlightAware
10:36PM 42.3920 -73.9520 253° West 410 472 34,100  Level FlightAware
10:36PM 42.3630 -74.0750 252° West 414 476 34,100  Level FlightAware
10:37PM 42.3410 -74.1660 252° West 413 475 34,100  Level FlightAware
10:38PM 42.3120 -74.2880 252° West 413 475 34,100  Level FlightAware
10:39PM 42.2890 -74.3860 252° West 412 474 34,100  Level FlightAware
10:39PM 42.2733 -74.4524 252° West 412 474 34,100  Level FlightAware ADS-B
10:40PM 42.2542 -74.5321 252° West 412 474 34,100  Level FlightAware ADS-B
10:40PM 42.2365 -74.6061 252° West 412 474 34,100  Level FlightAware ADS-B
10:41PM 42.2186 -74.6804 252° West 412 474 34,100  Level FlightAware ADS-B
10:41PM 42.1996 -74.7586 252° West 412 474 34,100  Level FlightAware ADS-B
10:42PM 42.1802 -74.8389 252° West 412 474 34,100  Level FlightAware ADS-B
10:42PM 42.1623 -74.9125 252° West 412 474 34,100  Level FlightAware ADS-B
10:43PM 42.1433 -74.9902 252° West 411 473 34,100  Level FlightAware ADS-B
10:43PM 42.1236 -75.0708 252° West 411 473 34,100  Level FlightAware ADS-B
10:44PM 42.1056 -75.1441 252° West 410 472 34,100  Level FlightAware ADS-B
10:44PM 42.0839 -75.2321 252° West 408 470 34,100  Level FlightAware ADS-B
10:45PM 42.0638 -75.3132 252° West 408 470 34,100  Level FlightAware ADS-B
10:45PM 42.0509 -75.3712 253° West 411 473 34,100  Level FlightAware ADS-B
10:46PM 42.0366 -75.4511 256° West 411 473 34,100  Level FlightAware ADS-B
10:46PM 42.0269 -75.5032 256° West 409 471 34,100  Level FlightAware ADS-B
10:47PM 41.9940 -75.6690 255° West 409 471 34,100  Level FlightAware
10:48PM 41.9730 -75.7770 255° West 410 472 34,100  Level FlightAware
10:48PM 41.9670 -75.8057 254° West 412 474 34,100  Level FlightAware ADS-B
10:49PM 41.9493 -75.8940 255° West 412 474 34,100  Level FlightAware ADS-B
10:49PM 41.9331 -75.9743 255° West 413 475 34,100  Level FlightAware ADS-B
10:50PM 41.9181 -76.0487 255° West 413 475 34,100  Level FlightAware ADS-B
10:50PM 41.9031 -76.1235 255° West 412 474 34,100  Level FlightAware ADS-B
10:51PM 41.8869 -76.2039 255° West 412 474 34,100  Level FlightAware ADS-B
10:52PM 41.8690 -76.2915 255° West 411 473 34,100  Level FlightAware ADS-B
10:52PM 41.8530 -76.3697 255° West 411 473 34,100  Level FlightAware ADS-B
10:53PM 41.8279 -76.4925 255° West 410 472 34,100  Level FlightAware ADS-B
10:53PM 41.8117 -76.5706 254° West 411 473 34,100  Level FlightAware ADS-B
10:54PM 41.7946 -76.6531 254° West 411 473 34,100  Level FlightAware ADS-B
10:55PM 41.7761 -76.7422 254° West 410 472 34,100  Level FlightAware ADS-B
10:55PM 41.7569 -76.8344 254° West 410 472 34,100  Level FlightAware ADS-B
10:56PM 41.7345 -76.9413 254° West 411 473 34,100  Level FlightAware ADS-B
10:57PM 41.7040 -77.0850 254° West 409 471 34,100  Level FlightAware
10:57PM 41.6918 -77.1434 254° West 411 473 34,100  Level FlightAware ADS-B
10:58PM 41.6640 -77.2750 254° West 404 465 34,100  Level FlightAware
10:59PM 41.6430 -77.3720 254° West 403 464 34,100  Level FlightAware
11:00PM 41.6220 -77.4700 254° West 403 464 34,100  Level FlightAware
11:00PM 41.5990 -77.5770 254° West 403 464 34,100  Level FlightAware
11:01PM 41.5770 -77.6730 253° West 400 460 34,100  Level FlightAware
11:02PM 41.5470 -77.7740 248° West 398 458 34,100  Level FlightAware
11:02PM 41.5170 -77.8670 247° West 398 458 34,100  Level FlightAware
11:03PM 41.4920 -77.9400 245° Southwest 396 456 34,100  Level FlightAware
11:04PM 41.4610 -78.0350 246° West 396 456 34,100  Level FlightAware
11:04PM 41.4280 -78.1360 246° West 395 455 34,100  Level FlightAware
11:05PM 41.4030 -78.2140 247° West 396 456 34,100  Level FlightAware
11:06PM 41.3700 -78.3140 246° West 397 457 34,100  Level FlightAware
11:06PM 41.3400 -78.4040 246° West 397 457 34,100  Level FlightAware
11:07PM 41.3140 -78.4830 246° West 398 458 34,100  Level FlightAware
11:08PM 41.2840 -78.5720 246° West 401 461 34,100  Level FlightAware
11:08PM 41.2510 -78.6740 247° West 403 464 34,100  Level FlightAware
11:09PM 41.2200 -78.7650 246° West 404 465 34,100  Level FlightAware
11:10PM 41.1890 -78.8580 246° West 404 465 34,100  Level FlightAware
11:10PM 41.1590 -78.9490 246° West 405 466 34,100  Level FlightAware
11:11PM 41.1240 -79.0510 246° West 404 465 34,100  Level FlightAware
11:12PM 41.0990 -79.1270 246° West 404 465 34,100  Level FlightAware
11:13PM 41.0640 -79.2290 246° West 406 467 34,100  Level FlightAware
11:13PM 41.0320 -79.3230 246° West 407 468 34,100  Level FlightAware
11:14PM 41.0060 -79.4000 246° West 408 470 34,100  Level FlightAware
11:14PM 40.9760 -79.4880 246° West 408 470 34,100  Level FlightAware
11:15PM 40.9430 -79.5840 246° West 406 467 34,100  Level FlightAware
11:16PM 40.9090 -79.6830 246° West 407 468 34,100  Level FlightAware
11:17PM 40.8720 -79.7870 245° Southwest 405 466 34,100  Level FlightAware
11:17PM 40.8370 -79.8900 246° West 405 466 34,100  Level FlightAware
11:18PM 40.8050 -79.9810 245° Southwest 404 465 34,100  Level FlightAware
11:19PM 40.7780 -80.0580 245° Southwest 405 466 34,100  Level FlightAware
11:19PM 40.7440 -80.1550 245° Southwest 406 467 34,100  Level FlightAware
11:20PM 40.7120 -80.2470 245° Southwest 406 467 34,100  Level FlightAware
11:21PM 40.6800 -80.3370 245° Southwest 408 470 34,100  Level FlightAware
11:21PM 40.6510 -80.4180 245° Southwest 408 470 34,100  Level FlightAware
11:22PM 40.6170 -80.5170 246° West 409 471 34,100  Level FlightAware
11:23PM 40.5870 -80.5980 244° Southwest 410 472 34,100  Level FlightAware
11:23PM 40.5550 -80.6890 245° Southwest 411 473 34,100  Level FlightAware
11:24PM 40.5200 -80.7880 245° Southwest 414 476 34,100  Level FlightAware
11:25PM 40.4860 -80.8800 244° Southwest 415 478 34,100  Level FlightAware
11:25PM 40.4520 -80.9750 245° Southwest 413 475 34,100  Level FlightAware
11:26PM 40.4150 -81.0760 244° Southwest 414 476 34,100  Level FlightAware
11:27PM 40.3820 -81.1680 245° Southwest 415 478 34,100  Level FlightAware
11:27PM 40.3470 -81.2640 244° Southwest 417 480 34,100  Level FlightAware
11:28PM 40.3160 -81.3490 244° Southwest 420 483 34,100  Level FlightAware
11:29PM 40.2820 -81.4420 244° Southwest 422 486 34,100  Level FlightAware
11:29PM 40.2480 -81.5340 244° Southwest 424 488 34,100  Level FlightAware
11:30PM 40.2180 -81.6160 244° Southwest 424 488 34,100  Level FlightAware
11:31PM 40.1780 -81.7230 244° Southwest 427 491 34,100  Level FlightAware
11:31PM 40.1450 -81.8130 244° Southwest 432 497 34,100  Level FlightAware
11:32PM 40.1090 -81.9080 244° Southwest 434 499 34,100  Level FlightAware
11:33PM 40.0690 -82.0160 244° Southwest 439 505 34,100  Level FlightAware
11:34PM 40.0330 -82.1120 244° Southwest 442 509 34,100  Level FlightAware
11:34PM 39.9930 -82.2180 244° Southwest 445 512 34,100  Level FlightAware
11:35PM 39.9640 -82.2950 244° Southwest 447 514 34,100  Level FlightAware
11:36PM 39.9240 -82.4010 244° Southwest 449 517 34,100  Level FlightAware
11:36PM 39.8860 -82.5000 243° Southwest 450 518 34,100  Level FlightAware
11:37PM 39.8570 -82.5770 244° Southwest 449 517 34,100  Level FlightAware
11:38PM 39.8120 -82.6940 243° Southwest 448 516 34,100  Level FlightAware
11:38PM 39.7730 -82.7950 243° Southwest 445 512 34,100  Level FlightAware
11:39PM 39.7360 -82.8920 244° Southwest 444 511 34,100 -120 Level FlightAware
11:40PM 39.6960 -82.9960 243° Southwest 441 507 34,000 -660 Descending FlightAware
11:40PM 39.6600 -83.0900 244° Southwest 444 511 33,200 -1,620 Descending FlightAware
11:41PM 39.6180 -83.1970 243° Southwest 461 531 31,800 -1,620 Descending FlightAware
11:42PM 39.5800 -83.2920 243° Southwest 465 535 31,000 -1,260 Descending FlightAware
11:42PM 39.5380 -83.4020 244° Southwest 471 542 30,100 -660 Descending FlightAware
11:43PM 39.4950 -83.5120 243° Southwest 472 543 30,100  Level FlightAware
11:44PM 39.4520 -83.6180 242° Southwest 474 545 30,100  Level FlightAware
11:44PM 39.4070 -83.7190 240° Southwest 479 551 30,100  Level FlightAware
11:45PM 39.3520 -83.8300 237° Southwest 483 556 30,100  Level FlightAware
11:46PM 39.3140 -83.9030 236° Southwest 484 557 30,100 -240 Level FlightAware
11:47PM 39.2580 -84.0110 236° Southwest 461 531 29,800 -1,320 Descending FlightAware
11:47PM 39.2000 -84.1200 236° Southwest 453 521 28,000 -1,200 Descending FlightAware
11:48PM 39.1630 -84.1900 236° Southwest 453 521 28,000 -2,160 Level FlightAware
11:49PM 39.1110 -84.2910 236° Southwest 436 502 25,100 -2,100 Descending FlightAware
11:49PM 39.0720 -84.3640 235° Southwest 436 502 25,100 -2,280 Level FlightAware
11:50PM 38.9940 -84.5130 236° Southwest 417 480 21,400 -2,460 Descending FlightAware
11:51PM 38.9580 -84.5810 236° Southwest 413 475 21,000 -1,920 Descending FlightAware
11:52PM 38.9000 -84.6900 236° Southwest 413 475 18,400 -1,920 Descending FlightAware
11:53PM 38.8650 -84.7580 237° Southwest 395 455 18,100 -2,160 Descending FlightAware
11:53PM 38.8190 -84.8430 235° Southwest 365 420 15,700 -2,640 Descending FlightAware
11:54PM 38.7800 -84.9160 236° Southwest 364 419 14,500 -1,620 Descending FlightAware
11:55PM 38.7290 -84.9810 225° Southwest 355 409 13,500 -1,380 Descending FlightAware
11:55PM 38.6850 -85.0240 217° Southwest 376 433 12,900 -1,140 Descending FlightAware
11:56PM 38.6310 -85.0760 217° Southwest 373 429 12,100 -600 Descending FlightAware
11:57PM 38.5570 -85.1470 217° Southwest 357 411 11,900 -1,140 Descending FlightAware
11:58PM 38.5060 -85.2510 238° Southwest 341 392 10,000 -1,500 Descending FlightAware
11:58PM 38.4870 -85.2860 235° Southwest 341 392 9,900 -120 Descending FlightAware
11:59PM 38.4620 -85.3320 235° Southwest 339 390 9,900  Level FlightAware
11:59PM 38.4330 -85.3850 235° Southwest 338 389 9,900  Level FlightAware
12:00AM 38.3960 -85.4530 235° Southwest 340 391 9,900  Level FlightAware
12:00AM 38.3710 -85.5000 236° Southwest 340 391 9,900  Level FlightAware
12:01AM 38.3500 -85.5370 234° Southwest 340 391 9,900  Level FlightAware
12:01AM 38.3340 -85.5660 235° Southwest 340 391 9,900  Level FlightAware
12:01AM 38.3090 -85.6130 236° Southwest 340 391 9,900  Level FlightAware
12:02AM 38.2870 -85.6540 236° Southwest 324 373 9,900  Level FlightAware
12:02AM 38.2670 -85.6900 235° Southwest 304 350 9,900 -240 Level FlightAware
12:03AM 38.2460 -85.7290 236° Southwest 295 339 9,700 -780 Descending FlightAware
12:03AM 38.2230 -85.7700 234° Southwest 290 334 9,200 -1,140 Descending FlightAware
12:04AM 38.2000 -85.8120 235° Southwest 286 329 8,600 -1,200 Descending FlightAware
12:04AM 38.1850 -85.8290 222° Southwest 287 330 8,300 -1,200 Descending FlightAware
12:04AM 38.1740 -85.8350 203° Southwest 287 330 8,100 -1,380 Descending FlightAware
12:05AM 38.1280 -85.8270 172° South 283 326 7,300 -1,320 Descending FlightAware
12:05AM 38.1020 -85.8160 162° South 282 325 6,900 -960 Descending FlightAware
12:05AM 38.0710 -85.8050 164° South 273 314 6,600 -900 Descending FlightAware
12:06AM 38.0330 -85.7910 164° South 248 285 6,100 -840 Descending FlightAware
12:06AM 38.0210 -85.7870 165° South 240 276 6,000 -120 Descending FlightAware
12:07AM 37.9760 -85.7720 165° South 211 243 6,000 -480 Level FlightAware
12:07AM 37.9650 -85.7680 164° South 186 214 5,500 -1,620 Descending FlightAware
12:08AM 37.9390 -85.7580 163° South 180 207 4,900 -840 Descending FlightAware
12:08AM 37.9340 -85.7450 116° Southeast 175 201 4,900  Level FlightAware
12:08AM 37.9370 -85.7190 82° East 174 200 4,900  Level FlightAware
12:09AM 37.9390 -85.7060 79° East 173 199 4,900  Level FlightAware
12:09AM 37.9410 -85.6970 74° East 172 198 4,900 -300 Level FlightAware
12:09AM 37.9490 -85.6870 45° Northeast 171 197 4,800 -1,020 Descending FlightAware
12:09AM 37.9710 -85.6810 12° North 179 206 4,200 -1,200 Descending FlightAware
12:10AM 37.9800 -85.6810 360° North 184 212 4,000 -1,320 Descending FlightAware
12:10AM 37.9950 -85.6860 345° North 179 206 3,600 -1,200 Descending FlightAware
12:10AM 38.0060 -85.6890 348° North 165 190 3,400 -780 Descending FlightAware
12:11AM 38.0400 -85.7000 346° North 157 181 2,800 -840 Descending FlightAware
12:11AM 38.0590 -85.7070 344° North 157 181 2,400 -960 Descending FlightAware
12:12AM 38.0760 -85.7120 347° North 151 174 2,000 -840 Descending FlightAware
12:12AM 38.1000 -85.7200 345° North 135 155 1,600 -660 Descending FlightAware
12:13AM 38.1060 -85.7220 345° North 135 155 1,500 -780 Descending FlightAware
12:13AM 38.1240 -85.7280 345° North 140 161 1,100 -780 Descending FlightAware
12:14AM 38.1420 -85.7340 345° North 139 160 800 -720 Descending FlightAware
12:14AM 38.1520 -85.7370 347° North 138 159 600 -780 Descending FlightAware
12:15AM 38.1780 -85.7460 345° North 86 99 -660 Descending FlightAware
12:15AM 38.1760 -85.7450 159° South 16 18  Level FlightAware
12:15AM 38.1760 -85.7440 90° East 31 36  Level FlightAware
12:15AM 38.1770 -85.7430 38° Northeast 31 36  Level FlightAware
12:16AM 38.1750 -85.7420 159° South 16 18  Level FlightAware
12:16AM 38.1710 -85.7410 169° South 21 24  Level FlightAware
12:17AM 38.1700 -85.7410 180° South 23 26  Level FlightAware
12:17AM 38.1660 -85.7390 159° South 15 17  Level FlightAware
12:18AM 38.1650 -85.7380 142° Southeast 31 36  Level FlightAware
12:18AM 38.1640 -85.7330 104° East 34 39  Level FlightAware